sensor_id;sensor_type;location;lat;lon;timestamp;pressure;altitude;pressure_sealevel;temperature;humidity
57412;BME280;43247;52.828;-8.980;2023-02-13T00:00:09;102877.32;;;9.01;83.80
57412;BME280;43247;52.828;-8.980;2023-02-13T00:01:06;102878.17;;;9.01;83.90
57412;BME280;43247;52.828;-8.980;2023-02-13T00:02:07;102875.58;;;9.04;83.90
57412;BME280;43247;52.828;-8.980;2023-02-13T00:03:07;102877.00;;;9.03;83.80
57412;BME280;43247;52.828;-8.980;2023-02-13T00:04:08;102876.08;;;9.03;83.79
57412;BME280;43247;52.828;-8.980;2023-02-13T00:05:08;102875.76;;;9.02;83.84
57412;BME280;43247;52.828;-8.980;2023-02-13T00:06:09;102877.87;;;9.01;83.93
57412;BME280;43247;52.828;-8.980;2023-02-13T00:07:11;102877.52;;;9.00;83.96
57412;BME280;43247;52.828;-8.980;2023-02-13T00:08:10;102875.75;;;9.00;84.01
57412;BME280;43247;52.828;-8.980;2023-02-13T00:09:10;102877.10;;;8.98;84.07
57412;BME280;43247;52.828;-8.980;2023-02-13T00:10:11;102875.13;;;8.97;84.13
57412;BME280;43247;52.828;-8.980;2023-02-13T00:11:11;102873.84;;;8.97;84.12
57412;BME280;43247;52.828;-8.980;2023-02-13T00:12:12;102873.19;;;8.96;84.06
57412;BME280;43247;52.828;-8.980;2023-02-13T00:13:13;102871.73;;;8.95;84.12
57412;BME280;43247;52.828;-8.980;2023-02-13T00:14:13;102869.85;;;8.95;84.15
57412;BME280;43247;52.828;-8.980;2023-02-13T00:15:14;102869.28;;;8.95;84.12
57412;BME280;43247;52.828;-8.980;2023-02-13T00:16:14;102869.61;;;8.94;84.20
57412;BME280;43247;52.828;-8.980;2023-02-13T00:17:15;102870.01;;;8.94;84.22
57412;BME280;43247;52.828;-8.980;2023-02-13T00:18:15;102865.55;;;8.93;84.26
57412;BME280;43247;52.828;-8.980;2023-02-13T00:19:16;102860.95;;;8.93;84.27
57412;BME280;43247;52.828;-8.980;2023-02-13T00:20:16;102861.99;;;8.92;84.29
57412;BME280;43247;52.828;-8.980;2023-02-13T00:21:17;102859.19;;;8.91;84.27
57412;BME280;43247;52.828;-8.980;2023-02-13T00:22:17;102859.94;;;8.91;84.31
57412;BME280;43247;52.828;-8.980;2023-02-13T00:23:17;102853.15;;;8.91;84.34
57412;BME280;43247;52.828;-8.980;2023-02-13T00:24:18;102852.94;;;8.90;84.37
57412;BME280;43247;52.828;-8.980;2023-02-13T00:25:18;102850.55;;;8.92;84.38
57412;BME280;43247;52.828;-8.980;2023-02-13T00:26:19;102849.99;;;8.94;84.28
57412;BME280;43247;52.828;-8.980;2023-02-13T00:27:19;102851.68;;;8.93;84.40
57412;BME280;43247;52.828;-8.980;2023-02-13T00:28:20;102848.43;;;8.94;84.40
57412;BME280;43247;52.828;-8.980;2023-02-13T00:29:20;102846.32;;;8.93;84.45
57412;BME280;43247;52.828;-8.980;2023-02-13T00:30:21;102847.21;;;8.93;84.55
57412;BME280;43247;52.828;-8.980;2023-02-13T00:31:21;102847.29;;;8.92;84.52
57412;BME280;43247;52.828;-8.980;2023-02-13T00:32:22;102845.42;;;8.93;84.47
57412;BME280;43247;52.828;-8.980;2023-02-13T00:33:22;102844.54;;;8.93;84.52
57412;BME280;43247;52.828;-8.980;2023-02-13T00:34:23;102842.52;;;8.94;84.53
57412;BME280;43247;52.828;-8.980;2023-02-13T00:35:24;102846.99;;;8.99;84.36
57412;BME280;43247;52.828;-8.980;2023-02-13T00:36:24;102847.17;;;8.98;84.03
57412;BME280;43247;52.828;-8.980;2023-02-13T00:37:24;102846.07;;;8.98;84.08
57412;BME280;43247;52.828;-8.980;2023-02-13T00:38:24;102848.43;;;9.00;84.05
57412;BME280;43247;52.828;-8.980;2023-02-13T00:39:25;102848.30;;;9.00;83.90
57412;BME280;43247;52.828;-8.980;2023-02-13T00:40:26;102846.17;;;8.98;83.93
57412;BME280;43247;52.828;-8.980;2023-02-13T00:41:27;102847.85;;;8.98;84.03
57412;BME280;43247;52.828;-8.980;2023-02-13T00:42:27;102845.84;;;8.98;84.06
57412;BME280;43247;52.828;-8.980;2023-02-13T00:43:27;102843.42;;;8.98;84.06
57412;BME280;43247;52.828;-8.980;2023-02-13T00:44:27;102842.22;;;8.96;84.11
57412;BME280;43247;52.828;-8.980;2023-02-13T00:45:28;102845.31;;;8.95;84.12
57412;BME280;43247;52.828;-8.980;2023-02-13T00:46:28;102845.42;;;8.95;84.09
57412;BME280;43247;52.828;-8.980;2023-02-13T00:47:29;102846.56;;;8.94;84.08
57412;BME280;43247;52.828;-8.980;2023-02-13T00:48:31;102847.89;;;8.94;84.13
57412;BME280;43247;52.828;-8.980;2023-02-13T00:49:30;102848.87;;;8.93;84.17
57412;BME280;43247;52.828;-8.980;2023-02-13T00:50:30;102845.45;;;8.93;84.21
57412;BME280;43247;52.828;-8.980;2023-02-13T00:51:31;102846.25;;;8.93;84.21
57412;BME280;43247;52.828;-8.980;2023-02-13T00:52:31;102844.12;;;8.93;84.28
57412;BME280;43247;52.828;-8.980;2023-02-13T00:53:32;102846.80;;;8.93;84.25
57412;BME280;43247;52.828;-8.980;2023-02-13T00:54:31;102846.04;;;8.94;84.30
57412;BME280;43247;52.828;-8.980;2023-02-13T00:55:32;102846.81;;;8.93;84.27
57412;BME280;43247;52.828;-8.980;2023-02-13T00:56:32;102847.89;;;8.93;84.33
57412;BME280;43247;52.828;-8.980;2023-02-13T00:57:33;102852.48;;;8.94;84.23
57412;BME280;43247;52.828;-8.980;2023-02-13T00:58:33;102851.11;;;8.93;84.32
57412;BME280;43247;52.828;-8.980;2023-02-13T00:59:34;102849.44;;;8.92;84.25
57412;BME280;43247;52.828;-8.980;2023-02-13T01:00:34;102848.99;;;8.93;84.30
57412;BME280;43247;52.828;-8.980;2023-02-13T01:01:34;102849.11;;;8.94;84.27
57412;BME280;43247;52.828;-8.980;2023-02-13T01:02:35;102849.66;;;8.93;84.27
57412;BME280;43247;52.828;-8.980;2023-02-13T01:03:35;102850.06;;;8.93;84.25
57412;BME280;43247;52.828;-8.980;2023-02-13T01:04:36;102852.64;;;8.94;84.14
57412;BME280;43247;52.828;-8.980;2023-02-13T01:05:37;102852.97;;;8.93;84.17
57412;BME280;43247;52.828;-8.980;2023-02-13T01:06:37;102854.99;;;8.94;84.24
57412;BME280;43247;52.828;-8.980;2023-02-13T01:07:38;102852.93;;;8.94;84.26
57412;BME280;43247;52.828;-8.980;2023-02-13T01:08:39;102855.08;;;8.93;84.28
57412;BME280;43247;52.828;-8.980;2023-02-13T01:09:39;102856.05;;;8.94;84.27
57412;BME280;43247;52.828;-8.980;2023-02-13T01:10:42;102854.66;;;8.93;84.28
57412;BME280;43247;52.828;-8.980;2023-02-13T01:11:40;102856.42;;;8.92;84.27
57412;BME280;43247;52.828;-8.980;2023-02-13T01:12:41;102852.80;;;8.93;84.29
57412;BME280;43247;52.828;-8.980;2023-02-13T01:13:42;102850.82;;;8.92;84.28
57412;BME280;43247;52.828;-8.980;2023-02-13T01:14:42;102850.42;;;8.91;84.32
57412;BME280;43247;52.828;-8.980;2023-02-13T01:15:43;102849.26;;;8.91;84.37
57412;BME280;43247;52.828;-8.980;2023-02-13T01:16:43;102845.95;;;8.90;84.41
57412;BME280;43247;52.828;-8.980;2023-02-13T01:17:43;102847.85;;;8.91;84.41
57412;BME280;43247;52.828;-8.980;2023-02-13T01:18:44;102847.62;;;8.91;84.42
57412;BME280;43247;52.828;-8.980;2023-02-13T01:19:44;102846.85;;;8.91;84.43
57412;BME280;43247;52.828;-8.980;2023-02-13T01:21:45;102848.62;;;8.90;84.52
57412;BME280;43247;52.828;-8.980;2023-02-13T01:22:45;102845.32;;;8.91;84.47
57412;BME280;43247;52.828;-8.980;2023-02-13T01:23:46;102852.70;;;8.92;84.43
57412;BME280;43247;52.828;-8.980;2023-02-13T01:24:46;102854.23;;;8.90;84.50
57412;BME280;43247;52.828;-8.980;2023-02-13T01:25:46;102853.72;;;8.90;84.47
57412;BME280;43247;52.828;-8.980;2023-02-13T01:26:47;102852.66;;;8.90;84.48
57412;BME280;43247;52.828;-8.980;2023-02-13T01:27:47;102848.60;;;8.90;84.53
57412;BME280;43247;52.828;-8.980;2023-02-13T01:28:51;102848.65;;;8.90;84.52
57412;BME280;43247;52.828;-8.980;2023-02-13T01:29:48;102846.47;;;8.89;84.53
57412;BME280;43247;52.828;-8.980;2023-02-13T01:30:52;102847.64;;;8.89;84.53
57412;BME280;43247;52.828;-8.980;2023-02-13T01:31:49;102845.37;;;8.89;84.57
57412;BME280;43247;52.828;-8.980;2023-02-13T01:32:49;102844.98;;;8.89;84.58
57412;BME280;43247;52.828;-8.980;2023-02-13T01:33:50;102842.35;;;8.89;84.55
57412;BME280;43247;52.828;-8.980;2023-02-13T01:34:51;102842.15;;;8.88;84.58
57412;BME280;43247;52.828;-8.980;2023-02-13T01:35:51;102840.22;;;8.90;84.54
57412;BME280;43247;52.828;-8.980;2023-02-13T01:36:51;102840.95;;;8.89;84.64
57412;BME280;43247;52.828;-8.980;2023-02-13T01:37:52;102835.97;;;8.90;84.61
57412;BME280;43247;52.828;-8.980;2023-02-13T01:38:55;102835.97;;;8.90;84.55
57412;BME280;43247;52.828;-8.980;2023-02-13T01:39:53;102836.54;;;8.92;84.51
57412;BME280;43247;52.828;-8.980;2023-02-13T01:40:53;102836.87;;;8.91;84.48
57412;BME280;43247;52.828;-8.980;2023-02-13T01:41:53;102834.05;;;8.91;84.44
57412;BME280;43247;52.828;-8.980;2023-02-13T01:42:54;102833.53;;;8.90;84.43
57412;BME280;43247;52.828;-8.980;2023-02-13T01:43:57;102833.56;;;8.91;84.41
57412;BME280;43247;52.828;-8.980;2023-02-13T01:44:56;102834.96;;;8.92;84.43
57412;BME280;43247;52.828;-8.980;2023-02-13T01:45:56;102836.10;;;8.91;84.41
57412;BME280;43247;52.828;-8.980;2023-02-13T01:46:56;102833.03;;;8.92;84.38
57412;BME280;43247;52.828;-8.980;2023-02-13T01:47:59;102835.86;;;8.90;84.41
57412;BME280;43247;52.828;-8.980;2023-02-13T01:49:02;102835.14;;;8.90;84.41
57412;BME280;43247;52.828;-8.980;2023-02-13T01:50:03;102835.64;;;8.90;84.38
57412;BME280;43247;52.828;-8.980;2023-02-13T01:51:00;102835.33;;;8.89;84.47
57412;BME280;43247;52.828;-8.980;2023-02-13T01:52:00;102831.13;;;8.91;84.38
57412;BME280;43247;52.828;-8.980;2023-02-13T01:53:04;102829.81;;;8.91;84.31
57412;BME280;43247;52.828;-8.980;2023-02-13T01:54:05;102828.30;;;8.93;84.35
57412;BME280;43247;52.828;-8.980;2023-02-13T01:55:02;102832.27;;;8.93;84.17
57412;BME280;43247;52.828;-8.980;2023-02-13T01:56:10;102828.68;;;8.92;84.16
57412;BME280;43247;52.828;-8.980;2023-02-13T01:57:05;102833.04;;;8.91;84.18
57412;BME280;43247;52.828;-8.980;2023-02-13T01:58:06;102834.20;;;8.91;84.21
57412;BME280;43247;52.828;-8.980;2023-02-13T01:59:07;102834.01;;;8.90;84.25
57412;BME280;43247;52.828;-8.980;2023-02-13T02:00:06;102833.26;;;8.90;84.30
57412;BME280;43247;52.828;-8.980;2023-02-13T02:01:05;102832.14;;;8.93;84.15
57412;BME280;43247;52.828;-8.980;2023-02-13T02:02:05;102831.54;;;8.94;84.14
57412;BME280;43247;52.828;-8.980;2023-02-13T02:03:09;102832.05;;;8.93;84.07
57412;BME280;43247;52.828;-8.980;2023-02-13T02:04:08;102833.54;;;8.93;84.12
57412;BME280;43247;52.828;-8.980;2023-02-13T02:05:08;102830.70;;;8.92;84.13
57412;BME280;43247;52.828;-8.980;2023-02-13T02:06:13;102831.80;;;8.91;84.18
57412;BME280;43247;52.828;-8.980;2023-02-13T02:07:10;102831.01;;;8.91;84.24
57412;BME280;43247;52.828;-8.980;2023-02-13T02:08:10;102830.45;;;8.91;84.18
57412;BME280;43247;52.828;-8.980;2023-02-13T02:09:12;102823.26;;;8.91;84.18
57412;BME280;43247;52.828;-8.980;2023-02-13T02:10:13;102827.93;;;8.89;84.20
57412;BME280;43247;52.828;-8.980;2023-02-13T02:11:16;102828.35;;;8.89;84.20
57412;BME280;43247;52.828;-8.980;2023-02-13T02:12:16;102825.86;;;8.88;84.23
57412;BME280;43247;52.828;-8.980;2023-02-13T02:13:12;102824.15;;;8.87;84.22
57412;BME280;43247;52.828;-8.980;2023-02-13T02:14:11;102823.73;;;8.86;84.28
57412;BME280;43247;52.828;-8.980;2023-02-13T02:15:12;102822.17;;;8.86;84.31
57412;BME280;43247;52.828;-8.980;2023-02-13T02:16:12;102816.83;;;8.86;84.33
57412;BME280;43247;52.828;-8.980;2023-02-13T02:17:13;102817.21;;;8.88;84.27
57412;BME280;43247;52.828;-8.980;2023-02-13T02:18:15;102814.22;;;8.86;84.26
57412;BME280;43247;52.828;-8.980;2023-02-13T02:19:21;102812.63;;;8.86;84.30
57412;BME280;43247;52.828;-8.980;2023-02-13T02:20:25;102810.16;;;8.86;84.30
57412;BME280;43247;52.828;-8.980;2023-02-13T02:27:29;102801.03;;;8.85;84.15
57412;BME280;43247;52.828;-8.980;2023-02-13T02:28:27;102806.91;;;8.84;84.27
57412;BME280;43247;52.828;-8.980;2023-02-13T02:29:29;102804.93;;;8.84;84.18
57412;BME280;43247;52.828;-8.980;2023-02-13T02:32:27;102801.51;;;8.86;84.14
57412;BME280;43247;52.828;-8.980;2023-02-13T02:33:27;102801.31;;;8.86;84.07
57412;BME280;43247;52.828;-8.980;2023-02-13T02:34:24;102800.32;;;8.85;84.15
57412;BME280;43247;52.828;-8.980;2023-02-13T02:35:26;102800.66;;;8.85;84.16
57412;BME280;43247;52.828;-8.980;2023-02-13T02:36:29;102798.47;;;8.85;84.17
57412;BME280;43247;52.828;-8.980;2023-02-13T02:37:32;102800.22;;;8.85;84.20
57412;BME280;43247;52.828;-8.980;2023-02-13T02:38:33;102800.47;;;8.85;84.19
57412;BME280;43247;52.828;-8.980;2023-02-13T02:39:29;102801.50;;;8.85;84.16
57412;BME280;43247;52.828;-8.980;2023-02-13T02:40:26;102800.99;;;8.85;84.15
57412;BME280;43247;52.828;-8.980;2023-02-13T02:41:29;102799.90;;;8.85;84.11
57412;BME280;43247;52.828;-8.980;2023-02-13T02:42:29;102798.65;;;8.84;84.14
57412;BME280;43247;52.828;-8.980;2023-02-13T02:43:33;102795.67;;;8.85;84.10
57412;BME280;43247;52.828;-8.980;2023-02-13T02:44:32;102793.72;;;8.84;84.10
57412;BME280;43247;52.828;-8.980;2023-02-13T02:45:28;102796.75;;;8.83;84.07
57412;BME280;43247;52.828;-8.980;2023-02-13T02:46:28;102796.99;;;8.82;84.12
57412;BME280;43247;52.828;-8.980;2023-02-13T02:47:30;102795.88;;;8.82;84.16
57412;BME280;43247;52.828;-8.980;2023-02-13T02:48:28;102793.18;;;8.83;84.08
57412;BME280;43247;52.828;-8.980;2023-02-13T02:49:26;102793.03;;;8.84;84.03
57412;BME280;43247;52.828;-8.980;2023-02-13T02:50:33;102791.45;;;8.83;83.96
57412;BME280;43247;52.828;-8.980;2023-02-13T02:51:36;102786.56;;;8.82;83.97
57412;BME280;43247;52.828;-8.980;2023-02-13T02:52:38;102788.39;;;8.82;84.08
57412;BME280;43247;52.828;-8.980;2023-02-13T02:53:32;102788.85;;;8.82;84.11
57412;BME280;43247;52.828;-8.980;2023-02-13T02:54:32;102789.40;;;8.81;84.16
57412;BME280;43247;52.828;-8.980;2023-02-13T02:55:36;102785.63;;;8.81;84.13
57412;BME280;43247;52.828;-8.980;2023-02-13T02:56:36;102783.21;;;8.82;84.19
57412;BME280;43247;52.828;-8.980;2023-02-13T02:57:33;102779.31;;;8.82;84.10
57412;BME280;43247;52.828;-8.980;2023-02-13T02:58:36;102775.19;;;8.84;83.78
57412;BME280;43247;52.828;-8.980;2023-02-13T02:59:33;102777.20;;;8.83;83.83
57412;BME280;43247;52.828;-8.980;2023-02-13T03:00:36;102777.79;;;8.84;83.90
57412;BME280;43247;52.828;-8.980;2023-02-13T03:01:33;102777.63;;;8.86;83.73
57412;BME280;43247;52.828;-8.980;2023-02-13T03:02:34;102775.83;;;8.86;83.48
57412;BME280;43247;52.828;-8.980;2023-02-13T03:03:35;102777.71;;;8.90;83.44
57412;BME280;43247;52.828;-8.980;2023-02-13T03:04:39;102775.89;;;8.89;83.27
57412;BME280;43247;52.828;-8.980;2023-02-13T03:05:39;102773.68;;;8.87;83.39
57412;BME280;43247;52.828;-8.980;2023-02-13T03:06:39;102772.69;;;8.86;83.45
57412;BME280;43247;52.828;-8.980;2023-02-13T03:07:36;102774.76;;;8.86;83.60
57412;BME280;43247;52.828;-8.980;2023-02-13T03:08:36;102771.92;;;8.86;83.54
57412;BME280;43247;52.828;-8.980;2023-02-13T03:09:39;102774.35;;;8.87;83.57
57412;BME280;43247;52.828;-8.980;2023-02-13T03:10:37;102771.05;;;8.88;83.47
57412;BME280;43247;52.828;-8.980;2023-02-13T03:11:38;102771.51;;;8.86;83.53
57412;BME280;43247;52.828;-8.980;2023-02-13T03:12:43;102770.65;;;8.85;83.58
57412;BME280;43247;52.828;-8.980;2023-02-13T03:13:42;102768.96;;;8.83;83.74
57412;BME280;43247;52.828;-8.980;2023-02-13T03:14:40;102769.34;;;8.82;83.79
57412;BME280;43247;52.828;-8.980;2023-02-13T03:15:42;102766.06;;;8.82;83.74
57412;BME280;43247;52.828;-8.980;2023-02-13T03:16:41;102761.65;;;8.82;83.70
57412;BME280;43247;52.828;-8.980;2023-02-13T03:17:41;102761.88;;;8.83;83.62
57412;BME280;43247;52.828;-8.980;2023-02-13T03:18:43;102759.58;;;8.83;83.55
57412;BME280;43247;52.828;-8.980;2023-02-13T03:19:51;102761.63;;;8.84;83.56
57412;BME280;43247;52.828;-8.980;2023-02-13T03:20:45;102761.86;;;8.82;83.52
57412;BME280;43247;52.828;-8.980;2023-02-13T03:21:47;102758.72;;;8.84;83.58
57412;BME280;43247;52.828;-8.980;2023-02-13T03:22:51;102754.24;;;8.85;83.51
57412;BME280;43247;52.828;-8.980;2023-02-13T03:23:48;102754.02;;;8.86;83.43
57412;BME280;43247;52.828;-8.980;2023-02-13T03:24:50;102753.73;;;8.85;83.36
57412;BME280;43247;52.828;-8.980;2023-02-13T03:25:57;102753.28;;;8.85;83.38
57412;BME280;43247;52.828;-8.980;2023-02-13T03:26:47;102747.53;;;8.85;83.44
57412;BME280;43247;52.828;-8.980;2023-02-13T03:27:47;102746.75;;;8.86;83.34
57412;BME280;43247;52.828;-8.980;2023-02-13T03:28:49;102745.66;;;8.85;83.27
57412;BME280;43247;52.828;-8.980;2023-02-13T03:29:51;102742.95;;;8.84;83.35
57412;BME280;43247;52.828;-8.980;2023-02-13T03:30:55;102741.95;;;8.83;83.40
57412;BME280;43247;52.828;-8.980;2023-02-13T03:31:50;102738.83;;;8.83;83.40
57412;BME280;43247;52.828;-8.980;2023-02-13T03:32:59;102745.27;;;8.85;83.40
57412;BME280;43247;52.828;-8.980;2023-02-13T03:33:55;102740.65;;;8.86;83.30
57412;BME280;43247;52.828;-8.980;2023-02-13T03:34:53;102737.45;;;8.87;83.31
57412;BME280;43247;52.828;-8.980;2023-02-13T03:35:52;102737.40;;;8.85;83.28
57412;BME280;43247;52.828;-8.980;2023-02-13T03:36:51;102735.52;;;8.84;83.33
57412;BME280;43247;52.828;-8.980;2023-02-13T03:37:49;102732.97;;;8.85;83.37
57412;BME280;43247;52.828;-8.980;2023-02-13T03:38:54;102732.39;;;8.86;83.13
57412;BME280;43247;52.828;-8.980;2023-02-13T03:39:55;102728.93;;;8.86;83.10
57412;BME280;43247;52.828;-8.980;2023-02-13T03:40:53;102729.60;;;8.84;83.11
57412;BME280;43247;52.828;-8.980;2023-02-13T03:41:54;102730.36;;;8.85;83.15
57412;BME280;43247;52.828;-8.980;2023-02-13T03:42:54;102724.76;;;8.83;83.18
57412;BME280;43247;52.828;-8.980;2023-02-13T03:43:57;102727.64;;;8.83;83.26
57412;BME280;43247;52.828;-8.980;2023-02-13T03:44:56;102723.35;;;8.83;83.27
57412;BME280;43247;52.828;-8.980;2023-02-13T03:45:52;102719.05;;;8.83;83.33
57412;BME280;43247;52.828;-8.980;2023-02-13T03:46:57;102720.48;;;8.85;83.31
57412;BME280;43247;52.828;-8.980;2023-02-13T03:47:56;102728.12;;;8.83;83.32
57412;BME280;43247;52.828;-8.980;2023-02-13T03:48:55;102726.48;;;8.82;83.36
57412;BME280;43247;52.828;-8.980;2023-02-13T03:49:54;102728.10;;;8.82;83.33
57412;BME280;43247;52.828;-8.980;2023-02-13T03:50:56;102730.95;;;8.81;83.29
57412;BME280;43247;52.828;-8.980;2023-02-13T03:51:58;102724.97;;;8.81;83.36
57412;BME280;43247;52.828;-8.980;2023-02-13T03:53:00;102721.23;;;8.84;83.31
57412;BME280;43247;52.828;-8.980;2023-02-13T03:54:00;102724.64;;;8.83;83.21
57412;BME280;43247;52.828;-8.980;2023-02-13T03:55:00;102720.69;;;8.85;83.20
57412;BME280;43247;52.828;-8.980;2023-02-13T03:55:58;102716.87;;;8.84;83.18
57412;BME280;43247;52.828;-8.980;2023-02-13T03:56:58;102715.68;;;8.84;83.20
57412;BME280;43247;52.828;-8.980;2023-02-13T03:58:03;102712.97;;;8.83;83.19
57412;BME280;43247;52.828;-8.980;2023-02-13T03:59:01;102708.89;;;8.83;83.22
57412;BME280;43247;52.828;-8.980;2023-02-13T04:00:00;102708.99;;;8.83;83.23
57412;BME280;43247;52.828;-8.980;2023-02-13T04:01:01;102709.83;;;8.82;83.32
57412;BME280;43247;52.828;-8.980;2023-02-13T04:02:06;102712.78;;;8.82;83.40
57412;BME280;43247;52.828;-8.980;2023-02-13T04:03:09;102714.31;;;8.84;83.30
57412;BME280;43247;52.828;-8.980;2023-02-13T04:04:06;102714.13;;;8.83;83.07
57412;BME280;43247;52.828;-8.980;2023-02-13T04:05:07;102712.97;;;8.83;83.16
57412;BME280;43247;52.828;-8.980;2023-02-13T04:06:05;102712.79;;;8.84;83.18
57412;BME280;43247;52.828;-8.980;2023-02-13T04:07:06;102712.87;;;8.85;83.16
57412;BME280;43247;52.828;-8.980;2023-02-13T04:08:02;102702.58;;;8.83;83.08
57412;BME280;43247;52.828;-8.980;2023-02-13T04:09:03;102700.12;;;8.84;82.89
57412;BME280;43247;52.828;-8.980;2023-02-13T04:10:05;102696.49;;;8.84;82.73
57412;BME280;43247;52.828;-8.980;2023-02-13T04:11:09;102695.54;;;8.84;82.76
57412;BME280;43247;52.828;-8.980;2023-02-13T04:12:08;102695.80;;;8.83;82.70
57412;BME280;43247;52.828;-8.980;2023-02-13T04:13:10;102693.16;;;8.86;82.69
57412;BME280;43247;52.828;-8.980;2023-02-13T04:14:11;102692.32;;;8.85;82.74
57412;BME280;43247;52.828;-8.980;2023-02-13T04:15:10;102695.86;;;8.84;82.86
57412;BME280;43247;52.828;-8.980;2023-02-13T04:16:09;102695.62;;;8.83;82.89
57412;BME280;43247;52.828;-8.980;2023-02-13T04:17:11;102694.92;;;8.88;82.72
57412;BME280;43247;52.828;-8.980;2023-02-13T04:18:11;102695.84;;;8.85;82.43
57412;BME280;43247;52.828;-8.980;2023-02-13T04:19:09;102699.10;;;8.84;82.64
57412;BME280;43247;52.828;-8.980;2023-02-13T04:20:09;102702.32;;;8.84;82.75
57412;BME280;43247;52.828;-8.980;2023-02-13T04:21:09;102693.06;;;8.84;82.76
57412;BME280;43247;52.828;-8.980;2023-02-13T04:22:11;102696.42;;;8.84;82.77
57412;BME280;43247;52.828;-8.980;2023-02-13T04:23:11;102693.69;;;8.85;82.79
57412;BME280;43247;52.828;-8.980;2023-02-13T04:24:10;102694.71;;;8.86;82.70
57412;BME280;43247;52.828;-8.980;2023-02-13T04:25:12;102694.28;;;8.86;82.47
57412;BME280;43247;52.828;-8.980;2023-02-13T04:26:16;102694.33;;;8.86;82.54
57412;BME280;43247;52.828;-8.980;2023-02-13T04:27:13;102694.52;;;8.87;82.60
57412;BME280;43247;52.828;-8.980;2023-02-13T04:28:13;102694.81;;;8.85;82.58
57412;BME280;43247;52.828;-8.980;2023-02-13T04:29:13;102692.53;;;8.88;82.62
57412;BME280;43247;52.828;-8.980;2023-02-13T04:30:14;102693.21;;;8.86;82.52
57412;BME280;43247;52.828;-8.980;2023-02-13T04:31:15;102692.57;;;8.87;82.60
57412;BME280;43247;52.828;-8.980;2023-02-13T04:32:15;102694.01;;;8.87;82.34
57412;BME280;43247;52.828;-8.980;2023-02-13T04:33:16;102702.51;;;8.87;82.42
57412;BME280;43247;52.828;-8.980;2023-02-13T04:34:16;102698.55;;;8.84;82.56
57412;BME280;43247;52.828;-8.980;2023-02-13T04:35:17;102698.16;;;8.84;82.62
57412;BME280;43247;52.828;-8.980;2023-02-13T04:36:17;102706.60;;;8.83;82.55
57412;BME280;43247;52.828;-8.980;2023-02-13T04:37:17;102709.44;;;8.81;82.69
57412;BME280;43247;52.828;-8.980;2023-02-13T04:38:18;102706.64;;;8.79;82.75
57412;BME280;43247;52.828;-8.980;2023-02-13T04:39:18;102704.89;;;8.79;82.80
57412;BME280;43247;52.828;-8.980;2023-02-13T04:40:19;102707.66;;;8.78;82.89
57412;BME280;43247;52.828;-8.980;2023-02-13T04:41:20;102707.47;;;8.79;82.84
57412;BME280;43247;52.828;-8.980;2023-02-13T04:42:20;102708.98;;;8.80;82.84
57412;BME280;43247;52.828;-8.980;2023-02-13T04:43:20;102709.05;;;8.80;82.91
57412;BME280;43247;52.828;-8.980;2023-02-13T04:44:20;102708.65;;;8.78;82.85
57412;BME280;43247;52.828;-8.980;2023-02-13T04:45:21;102710.63;;;8.78;82.98
57412;BME280;43247;52.828;-8.980;2023-02-13T04:46:21;102709.97;;;8.77;82.96
57412;BME280;43247;52.828;-8.980;2023-02-13T04:47:21;102706.90;;;8.77;83.04
57412;BME280;43247;52.828;-8.980;2023-02-13T04:48:22;102707.80;;;8.75;83.01
57412;BME280;43247;52.828;-8.980;2023-02-13T04:49:23;102701.61;;;8.74;83.01
57412;BME280;43247;52.828;-8.980;2023-02-13T04:50:24;102708.18;;;8.75;83.07
57412;BME280;43247;52.828;-8.980;2023-02-13T04:51:24;102703.95;;;8.75;83.05
57412;BME280;43247;52.828;-8.980;2023-02-13T04:52:25;102703.71;;;8.78;82.88
57412;BME280;43247;52.828;-8.980;2023-02-13T04:53:26;102711.69;;;8.75;82.79
57412;BME280;43247;52.828;-8.980;2023-02-13T04:54:26;102709.38;;;8.75;82.95
57412;BME280;43247;52.828;-8.980;2023-02-13T04:55:27;102709.35;;;8.74;83.01
57412;BME280;43247;52.828;-8.980;2023-02-13T04:56:28;102707.87;;;8.74;83.05
57412;BME280;43247;52.828;-8.980;2023-02-13T04:57:28;102708.35;;;8.73;83.17
57412;BME280;43247;52.828;-8.980;2023-02-13T04:58:28;102705.82;;;8.73;83.17
57412;BME280;43247;52.828;-8.980;2023-02-13T04:59:28;102707.15;;;8.73;83.12
57412;BME280;43247;52.828;-8.980;2023-02-13T05:00:29;102711.37;;;8.73;83.16
57412;BME280;43247;52.828;-8.980;2023-02-13T05:01:29;102709.59;;;8.73;83.14
57412;BME280;43247;52.828;-8.980;2023-02-13T05:02:30;102710.06;;;8.72;83.14
57412;BME280;43247;52.828;-8.980;2023-02-13T05:03:30;102708.27;;;8.70;83.18
57412;BME280;43247;52.828;-8.980;2023-02-13T05:04:30;102706.30;;;8.72;83.07
57412;BME280;43247;52.828;-8.980;2023-02-13T05:05:31;102705.77;;;8.72;83.06
57412;BME280;43247;52.828;-8.980;2023-02-13T05:07:32;102705.59;;;8.73;83.18
57412;BME280;43247;52.828;-8.980;2023-02-13T05:08:32;102710.86;;;8.72;83.20
57412;BME280;43247;52.828;-8.980;2023-02-13T05:09:33;102710.19;;;8.71;83.27
57412;BME280;43247;52.828;-8.980;2023-02-13T05:10:33;102705.39;;;8.71;83.26
57412;BME280;43247;52.828;-8.980;2023-02-13T05:11:34;102701.43;;;8.75;83.18
57412;BME280;43247;52.828;-8.980;2023-02-13T05:12:35;102700.92;;;8.76;82.84
57412;BME280;43247;52.828;-8.980;2023-02-13T05:13:36;102701.01;;;8.75;82.87
57412;BME280;43247;52.828;-8.980;2023-02-13T05:14:37;102701.41;;;8.75;82.94
57412;BME280;43247;52.828;-8.980;2023-02-13T05:15:37;102703.25;;;8.74;83.04
57412;BME280;43247;52.828;-8.980;2023-02-13T05:16:37;102699.19;;;8.75;83.03
57412;BME280;43247;52.828;-8.980;2023-02-13T05:17:37;102698.09;;;8.74;83.08
57412;BME280;43247;52.828;-8.980;2023-02-13T05:18:37;102701.27;;;8.73;83.11
57412;BME280;43247;52.828;-8.980;2023-02-13T05:19:38;102694.25;;;8.72;82.99
57412;BME280;43247;52.828;-8.980;2023-02-13T05:20:38;102697.33;;;8.73;82.90
57412;BME280;43247;52.828;-8.980;2023-02-13T05:21:38;102692.66;;;8.74;82.91
57412;BME280;43247;52.828;-8.980;2023-02-13T05:22:43;102694.23;;;8.73;82.94
57412;BME280;43247;52.828;-8.980;2023-02-13T05:23:39;102689.20;;;8.74;82.84
57412;BME280;43247;52.828;-8.980;2023-02-13T05:24:40;102692.18;;;8.73;82.99
57412;BME280;43247;52.828;-8.980;2023-02-13T05:25:41;102697.79;;;8.74;82.97